sensor_id;sensor_type;location;lat;lon;timestamp;pressure;altitude;pressure_sealevel;temperature;humidity
4814;BME280;15375;48.540;9.268;2023-05-19T00:01:42;97789.41;;;12.37;80.13
4814;BME280;15375;48.540;9.268;2023-05-19T00:04:08;97808.72;;;12.49;80.89
4814;BME280;15375;48.540;9.268;2023-05-19T00:06:34;97786.31;;;12.35;82.11
4814;BME280;15375;48.540;9.268;2023-05-19T00:09:10;97801.94;;;12.34;85.04
4814;BME280;15375;48.540;9.268;2023-05-19T00:11:37;97782.28;;;12.20;85.64
4814;BME280;15375;48.540;9.268;2023-05-19T00:14:05;97793.63;;;12.18;85.87
4814;BME280;15375;48.540;9.268;2023-05-19T00:16:30;97793.69;;;12.14;85.50
4814;BME280;15375;48.540;9.268;2023-05-19T00:18:57;97803.53;;;12.08;85.48
4814;BME280;15375;48.540;9.268;2023-05-19T00:21:24;97777.88;;;12.02;86.05
4814;BME280;15375;48.540;9.268;2023-05-19T00:23:49;97795.72;;;12.10;86.02
4814;BME280;15375;48.540;9.268;2023-05-19T00:26:15;97775.97;;;11.99;85.69
4814;BME280;15375;48.540;9.268;2023-05-19T00:28:40;97776.69;;;12.03;86.03
4814;BME280;15375;48.540;9.268;2023-05-19T00:31:06;97784.19;;;11.99;85.41
4814;BME280;15375;48.540;9.268;2023-05-19T00:33:32;97776.75;;;12.00;84.60
4814;BME280;15375;48.540;9.268;2023-05-19T00:35:59;97780.13;;;12.07;84.44
4814;BME280;15375;48.540;9.268;2023-05-19T00:38:26;97773.91;;;12.07;84.10
4814;BME280;15375;48.540;9.268;2023-05-19T00:40:52;97742.81;;;11.97;83.04
4814;BME280;15375;48.540;9.268;2023-05-19T00:43:17;97759.22;;;12.21;79.67
4814;BME280;15375;48.540;9.268;2023-05-19T00:45:43;97760.34;;;12.23;80.10
4814;BME280;15375;48.540;9.268;2023-05-19T00:48:08;97757.53;;;12.27;78.31
4814;BME280;15375;48.540;9.268;2023-05-19T00:50:33;97745.91;;;12.23;77.96
4814;BME280;15375;48.540;9.268;2023-05-19T00:52:59;97743.16;;;12.23;76.77
4814;BME280;15375;48.540;9.268;2023-05-19T00:55:27;97770.09;;;12.44;76.28
4814;BME280;15375;48.540;9.268;2023-05-19T00:57:54;97751.81;;;12.41;76.55
4814;BME280;15375;48.540;9.268;2023-05-19T01:00:20;97745.28;;;12.35;76.21
4814;BME280;15375;48.540;9.268;2023-05-19T01:02:46;97745.34;;;12.31;76.97
4814;BME280;15375;48.540;9.268;2023-05-19T01:05:12;97752.31;;;12.36;76.67
4814;BME280;15375;48.540;9.268;2023-05-19T01:07:39;97738.81;;;12.25;76.90
4814;BME280;15375;48.540;9.268;2023-05-19T01:10:06;97744.63;;;12.27;77.75
4814;BME280;15375;48.540;9.268;2023-05-19T01:12:31;97732.63;;;12.21;77.64
4814;BME280;15375;48.540;9.268;2023-05-19T01:14:57;97725.31;;;12.14;79.21
4814;BME280;15375;48.540;9.268;2023-05-19T01:20:17;97735.00;;;12.19;78.55
4814;BME280;15375;48.540;9.268;2023-05-19T01:25:40;97739.28;;;12.20;76.53
4814;BME280;15375;48.540;9.268;2023-05-19T01:31:22;97751.75;;;12.21;77.33
4814;BME280;15375;48.540;9.268;2023-05-19T01:33:51;97758.84;;;12.18;77.64
4814;BME280;15375;48.540;9.268;2023-05-19T01:36:19;97746.91;;;12.09;78.22
4814;BME280;15375;48.540;9.268;2023-05-19T01:38:48;97755.06;;;12.12;78.43
4814;BME280;15375;48.540;9.268;2023-05-19T01:41:15;97744.34;;;11.98;78.39
4814;BME280;15375;48.540;9.268;2023-05-19T01:43:41;97761.41;;;12.06;78.24
4814;BME280;15375;48.540;9.268;2023-05-19T01:46:07;97768.06;;;12.05;79.65
4814;BME280;15375;48.540;9.268;2023-05-19T01:48:33;97761.41;;;12.06;79.29
4814;BME280;15375;48.540;9.268;2023-05-19T01:50:58;97745.56;;;11.97;80.14
4814;BME280;15375;48.540;9.268;2023-05-19T01:53:24;97771.13;;;12.10;80.09
4814;BME280;15375;48.540;9.268;2023-05-19T01:55:52;97755.94;;;12.06;80.03
4814;BME280;15375;48.540;9.268;2023-05-19T01:58:46;97756.38;;;12.04;80.76
4814;BME280;15375;48.540;9.268;2023-05-19T02:12:10;97727.50;;;11.80;79.35
4814;BME280;15375;48.540;9.268;2023-05-19T02:14:51;97734.00;;;11.86;79.56
4814;BME280;15375;48.540;9.268;2023-05-19T02:17:19;97733.00;;;11.77;79.66
4814;BME280;15375;48.540;9.268;2023-05-19T02:19:45;97755.47;;;11.88;79.91
4814;BME280;15375;48.540;9.268;2023-05-19T02:22:11;97744.25;;;11.82;79.08
4814;BME280;15375;48.540;9.268;2023-05-19T02:24:36;97747.31;;;11.84;79.31
4814;BME280;15375;48.540;9.268;2023-05-19T02:27:02;97745.38;;;11.85;78.95
4814;BME280;15375;48.540;9.268;2023-05-19T02:29:27;97732.34;;;11.66;79.92
4814;BME280;15375;48.540;9.268;2023-05-19T02:31:53;97707.31;;;11.47;80.19
4814;BME280;15375;48.540;9.268;2023-05-19T02:34:18;97711.88;;;11.54;80.35
4814;BME280;15375;48.540;9.268;2023-05-19T02:36:43;97730.09;;;11.61;80.21
4814;BME280;15375;48.540;9.268;2023-05-19T02:39:10;97707.69;;;11.46;79.82
4814;BME280;15375;48.540;9.268;2023-05-19T02:41:36;97724.81;;;11.50;80.22
4814;BME280;15375;48.540;9.268;2023-05-19T02:44:01;97744.13;;;11.63;80.05
4814;BME280;15375;48.540;9.268;2023-05-19T02:46:26;97746.50;;;11.61;80.61
4814;BME280;15375;48.540;9.268;2023-05-19T02:48:52;97727.16;;;11.48;80.73
4814;BME280;15375;48.540;9.268;2023-05-19T02:51:17;97731.03;;;11.50;80.41
4814;BME280;15375;48.540;9.268;2023-05-19T02:53:42;97737.63;;;11.53;80.26
4814;BME280;15375;48.540;9.268;2023-05-19T02:56:08;97733.28;;;11.55;79.68
4814;BME280;15375;48.540;9.268;2023-05-19T02:58:33;97750.00;;;11.61;79.70
4814;BME280;15375;48.540;9.268;2023-05-19T03:00:58;97748.88;;;11.59;80.11
4814;BME280;15375;48.540;9.268;2023-05-19T03:03:24;97707.81;;;11.39;80.25
4814;BME280;15375;48.540;9.268;2023-05-19T03:05:49;97741.56;;;11.52;80.44
4814;BME280;15375;48.540;9.268;2023-05-19T03:08:15;97737.28;;;11.51;80.85
4814;BME280;15375;48.540;9.268;2023-05-19T03:10:40;97715.56;;;11.40;81.14
4814;BME280;15375;48.540;9.268;2023-05-19T03:13:06;97721.81;;;11.41;82.24
4814;BME280;15375;48.540;9.268;2023-05-19T03:15:31;97735.00;;;11.46;82.01
4814;BME280;15375;48.540;9.268;2023-05-19T03:17:57;97732.44;;;11.35;82.66
4814;BME280;15375;48.540;9.268;2023-05-19T03:20:23;97707.66;;;11.23;82.79
4814;BME280;15375;48.540;9.268;2023-05-19T03:22:49;97735.81;;;11.43;82.09
4814;BME280;15375;48.540;9.268;2023-05-19T03:25:14;97704.53;;;11.24;82.68
4814;BME280;15375;48.540;9.268;2023-05-19T03:27:40;97719.63;;;11.32;81.27
4814;BME280;15375;48.540;9.268;2023-05-19T03:30:05;97725.78;;;11.36;81.49
4814;BME280;15375;48.540;9.268;2023-05-19T03:32:31;97729.66;;;11.39;81.66
4814;BME280;15375;48.540;9.268;2023-05-19T03:34:57;97739.31;;;11.47;81.47
4814;BME280;15375;48.540;9.268;2023-05-19T03:37:22;97729.34;;;11.33;82.10
4814;BME280;15375;48.540;9.268;2023-05-19T03:39:48;97747.53;;;11.43;83.28
4814;BME280;15375;48.540;9.268;2023-05-19T03:42:13;97705.34;;;11.21;81.58
4814;BME280;15375;48.540;9.268;2023-05-19T03:44:39;97707.41;;;11.14;82.01
4814;BME280;15375;48.540;9.268;2023-05-19T03:47:04;97744.09;;;11.39;82.78
4814;BME280;15375;48.540;9.268;2023-05-19T03:49:30;97738.66;;;11.36;81.68
4814;BME280;15375;48.540;9.268;2023-05-19T03:51:55;97721.97;;;11.30;81.71
4814;BME280;15375;48.540;9.268;2023-05-19T03:54:20;97738.94;;;11.45;81.88
4814;BME280;15375;48.540;9.268;2023-05-19T03:56:46;97735.13;;;11.39;81.92
4814;BME280;15375;48.540;9.268;2023-05-19T03:59:12;97753.31;;;11.49;83.32
4814;BME280;15375;48.540;9.268;2023-05-19T04:01:37;97715.44;;;11.24;83.11
4814;BME280;15375;48.540;9.268;2023-05-19T04:04:03;97716.56;;;11.27;81.90
4814;BME280;15375;48.540;9.268;2023-05-19T04:06:28;97713.50;;;11.25;82.03
4814;BME280;15375;48.540;9.268;2023-05-19T04:08:55;97721.94;;;11.34;82.65
4814;BME280;15375;48.540;9.268;2023-05-19T04:11:20;97739.00;;;11.41;82.64
4814;BME280;15375;48.540;9.268;2023-05-19T04:13:45;97742.16;;;11.40;82.09
4814;BME280;15375;48.540;9.268;2023-05-19T04:16:11;97737.75;;;11.46;82.16
4814;BME280;15375;48.540;9.268;2023-05-19T04:18:36;97741.47;;;11.32;85.79
4814;BME280;15375;48.540;9.268;2023-05-19T04:21:02;97722.91;;;11.20;87.02
4814;BME280;15375;48.540;9.268;2023-05-19T04:23:27;97746.16;;;11.32;86.55
4814;BME280;15375;48.540;9.268;2023-05-19T04:25:52;97728.34;;;11.20;84.90
4814;BME280;15375;48.540;9.268;2023-05-19T04:28:18;97738.31;;;11.34;84.32
4814;BME280;15375;48.540;9.268;2023-05-19T04:30:44;97749.81;;;11.48;83.56
4814;BME280;15375;48.540;9.268;2023-05-19T04:33:11;97731.94;;;11.44;83.43
4814;BME280;15375;48.540;9.268;2023-05-19T04:35:37;97728.72;;;11.49;83.82
4814;BME280;15375;48.540;9.268;2023-05-19T04:38:03;97731.34;;;11.56;82.83
4814;BME280;15375;48.540;9.268;2023-05-19T04:40:29;97706.16;;;11.45;83.51
4814;BME280;15375;48.540;9.268;2023-05-19T04:42:55;97713.81;;;11.53;82.17
4814;BME280;15375;48.540;9.268;2023-05-19T04:45:21;97744.41;;;11.72;81.93
4814;BME280;15375;48.540;9.268;2023-05-19T04:47:47;97740.91;;;11.71;82.52
4814;BME280;15375;48.540;9.268;2023-05-19T04:50:13;97734.47;;;11.81;82.51
4814;BME280;15375;48.540;9.268;2023-05-19T04:52:39;97735.19;;;12.08;81.17
4814;BME280;15375;48.540;9.268;2023-05-19T04:55:06;97733.25;;;12.29;80.47
4814;BME280;15375;48.540;9.268;2023-05-19T04:57:32;97720.31;;;12.33;80.52
4814;BME280;15375;48.540;9.268;2023-05-19T04:59:57;97638.13;;;11.77;77.88
4814;BME280;15375;48.540;9.268;2023-05-19T05:02:26;97700.22;;;12.00;77.99
4814;BME280;15375;48.540;9.268;2023-05-19T05:04:52;97740.06;;;12.21;79.61
4814;BME280;15375;48.540;9.268;2023-05-19T05:07:19;97709.94;;;12.01;78.46
4814;BME280;15375;48.540;9.268;2023-05-19T05:09:46;97731.50;;;12.18;78.31
4814;BME280;15375;48.540;9.268;2023-05-19T05:12:12;97738.97;;;12.38;77.77
4814;BME280;15375;48.540;9.268;2023-05-19T05:14:37;97722.38;;;12.48;77.19
4814;BME280;15375;48.540;9.268;2023-05-19T05:17:04;97726.44;;;12.60;77.78
4814;BME280;15375;48.540;9.268;2023-05-19T05:19:30;97720.25;;;12.75;74.97
4814;BME280;15375;48.540;9.268;2023-05-19T05:21:56;97727.00;;;12.71;79.04
4814;BME280;15375;48.540;9.268;2023-05-19T05:24:22;97742.13;;;12.95;80.43
4814;BME280;15375;48.540;9.268;2023-05-19T05:26:47;97737.81;;;12.78;80.65
4814;BME280;15375;48.540;9.268;2023-05-19T05:29:12;97727.66;;;13.14;80.25
4814;BME280;15375;48.540;9.268;2023-05-19T05:31:38;97717.72;;;13.56;76.39
4814;BME280;15375;48.540;9.268;2023-05-19T05:34:03;97701.59;;;13.42;76.56
4814;BME280;15375;48.540;9.268;2023-05-19T05:36:28;97684.88;;;13.85;73.37
4814;BME280;15375;48.540;9.268;2023-05-19T05:38:55;97711.91;;;14.47;71.88
4814;BME280;15375;48.540;9.268;2023-05-19T05:41:21;97717.00;;;15.03;68.67
4814;BME280;15375;48.540;9.268;2023-05-19T05:43:46;97714.00;;;16.11;64.20
4814;BME280;15375;48.540;9.268;2023-05-19T05:46:11;97711.94;;;17.32;59.03
4814;BME280;15375;48.540;9.268;2023-05-19T05:48:37;97710.41;;;17.00;58.62
4814;BME280;15375;48.540;9.268;2023-05-19T05:51:03;97712.47;;;16.66;59.23
4814;BME280;15375;48.540;9.268;2023-05-19T05:53:30;97724.22;;;16.79;58.81
4814;BME280;15375;48.540;9.268;2023-05-19T05:55:58;97741.63;;;15.94;61.91
4814;BME280;15375;48.540;9.268;2023-05-19T05:58:24;97729.94;;;14.90;65.40
4814;BME280;15375;48.540;9.268;2023-05-19T06:00:50;97749.22;;;14.45;69.70
4814;BME280;15375;48.540;9.268;2023-05-19T06:03:17;97744.19;;;14.85;68.44
4814;BME280;15375;48.540;9.268;2023-05-19T06:05:45;97742.22;;;14.12;71.50
4814;BME280;15375;48.540;9.268;2023-05-19T06:08:11;97739.22;;;13.74;73.95
4814;BME280;15375;48.540;9.268;2023-05-19T06:10:37;97727.06;;;13.59;74.35
4814;BME280;15375;48.540;9.268;2023-05-19T06:13:05;97743.56;;;13.39;76.21
4814;BME280;15375;48.540;9.268;2023-05-19T06:15:31;97725.06;;;13.43;77.20
4814;BME280;15375;48.540;9.268;2023-05-19T06:17:56;97721.56;;;13.91;71.14
4814;BME280;15375;48.540;9.268;2023-05-19T06:20:22;97734.72;;;14.28;68.93
4814;BME280;15375;48.540;9.268;2023-05-19T06:22:48;97740.31;;;14.25;68.22
4814;BME280;15375;48.540;9.268;2023-05-19T06:25:13;97648.44;;;13.56;70.92
4814;BME280;15375;48.540;9.268;2023-05-19T06:27:38;97715.06;;;13.53;71.00
4814;BME280;15375;48.540;9.268;2023-05-19T06:30:04;97725.75;;;13.47;72.22
4814;BME280;15375;48.540;9.268;2023-05-19T06:32:32;97741.03;;;13.64;73.15
4814;BME280;15375;48.540;9.268;2023-05-19T06:34:58;97726.72;;;13.73;71.57
4814;BME280;15375;48.540;9.268;2023-05-19T06:37:23;97726.38;;;13.71;70.55
4814;BME280;15375;48.540;9.268;2023-05-19T06:39:51;97733.22;;;13.95;68.76
4814;BME280;15375;48.540;9.268;2023-05-19T06:42:17;97747.78;;;14.24;69.08
4814;BME280;15375;48.540;9.268;2023-05-19T06:44:49;97721.16;;;13.76;69.12
4814;BME280;15375;48.540;9.268;2023-05-19T06:47:15;97735.13;;;13.82;70.13
4814;BME280;15375;48.540;9.268;2023-05-19T06:49:40;97734.38;;;14.42;69.59
4814;BME280;15375;48.540;9.268;2023-05-19T06:52:06;97712.63;;;15.18;65.18
4814;BME280;15375;48.540;9.268;2023-05-19T06:54:32;97732.97;;;15.20;64.94
4814;BME280;15375;48.540;9.268;2023-05-19T06:56:57;97732.56;;;14.52;64.86
4814;BME280;15375;48.540;9.268;2023-05-19T06:59:22;97734.50;;;14.06;65.73
4814;BME280;15375;48.540;9.268;2023-05-19T07:01:48;97734.06;;;14.08;66.34
4814;BME280;15375;48.540;9.268;2023-05-19T07:04:13;97744.03;;;14.02;68.81
4814;BME280;15375;48.540;9.268;2023-05-19T07:06:39;97735.34;;;13.87;68.59
4814;BME280;15375;48.540;9.268;2023-05-19T07:09:04;97716.44;;;13.93;69.44
4814;BME280;15375;48.540;9.268;2023-05-19T07:11:30;97730.19;;;14.22;67.80
4814;BME280;15375;48.540;9.268;2023-05-19T07:13:56;97705.91;;;13.91;69.19
4814;BME280;15375;48.540;9.268;2023-05-19T07:16:21;97725.88;;;13.76;68.91
4814;BME280;15375;48.540;9.268;2023-05-19T07:18:46;97740.16;;;13.67;69.88
4814;BME280;15375;48.540;9.268;2023-05-19T07:21:12;97724.59;;;13.64;70.96
4814;BME280;15375;48.540;9.268;2023-05-19T07:23:37;97733.31;;;13.75;71.81
4814;BME280;15375;48.540;9.268;2023-05-19T07:26:02;97721.91;;;13.61;72.91
4814;BME280;15375;48.540;9.268;2023-05-19T07:28:28;97724.06;;;13.53;73.06
4814;BME280;15375;48.540;9.268;2023-05-19T07:30:53;97698.75;;;13.29;72.82
4814;BME280;15375;48.540;9.268;2023-05-19T07:33:18;97705.00;;;13.14;73.64
4814;BME280;15375;48.540;9.268;2023-05-19T07:35:44;97747.16;;;13.52;74.57
4814;BME280;15375;48.540;9.268;2023-05-19T07:38:10;97739.72;;;13.53;73.27
4814;BME280;15375;48.540;9.268;2023-05-19T07:40:36;97735.97;;;13.79;72.24
4814;BME280;15375;48.540;9.268;2023-05-19T07:43:01;97724.66;;;13.61;71.67
4814;BME280;15375;48.540;9.268;2023-05-19T07:45:26;97726.63;;;13.44;73.10
4814;BME280;15375;48.540;9.268;2023-05-19T07:47:52;97728.34;;;13.54;73.29
4814;BME280;15375;48.540;9.268;2023-05-19T07:50:18;97710.09;;;13.48;74.46
4814;BME280;15375;48.540;9.268;2023-05-19T07:52:43;97735.56;;;13.64;73.47
4814;BME280;15375;48.540;9.268;2023-05-19T07:55:09;97729.28;;;13.64;75.45
4814;BME280;15375;48.540;9.268;2023-05-19T07:57:35;97700.06;;;13.41;75.02
4814;BME280;15375;48.540;9.268;2023-05-19T08:00:01;97739.91;;;13.62;76.24
4814;BME280;15375;48.540;9.268;2023-05-19T08:02:32;97708.47;;;13.50;77.08
4814;BME280;15375;48.540;9.268;2023-05-19T08:04:57;97720.97;;;13.51;75.24
4814;BME280;15375;48.540;9.268;2023-05-19T08:07:22;97717.09;;;13.32;75.90
4814;BME280;15375;48.540;9.268;2023-05-19T08:09:48;97735.25;;;13.42;77.29
4814;BME280;15375;48.540;9.268;2023-05-19T08:12:13;97713.56;;;13.16;76.92
4814;BME280;15375;48.540;9.268;2023-05-19T08:14:38;97727.88;;;13.23;76.68
4814;BME280;15375;48.540;9.268;2023-05-19T08:17:04;97690.59;;;13.10;78.09
4814;BME280;15375;48.540;9.268;2023-05-19T08:19:29;97710.69;;;13.39;77.38
4814;BME280;15375;48.540;9.268;2023-05-19T08:21:55;97701.75;;;13.19;77.35
4814;BME280;15375;48.540;9.268;2023-05-19T08:24:21;97680.53;;;13.23;77.78
4814;BME280;15375;48.540;9.268;2023-05-19T08:26:46;97709.75;;;13.46;78.74
4814;BME280;15375;48.540;9.268;2023-05-19T08:29:12;97678.91;;;13.25;78.45
4814;BME280;15375;48.540;9.268;2023-05-19T08:31:37;97703.50;;;13.29;77.58
4814;BME280;15375;48.540;9.268;2023-05-19T08:34:02;97703.56;;;13.25;78.50
4814;BME280;15375;48.540;9.268;2023-05-19T08:36:28;97719.94;;;13.29;79.06
4814;BME280;15375;48.540;9.268;2023-05-19T08:38:54;97672.84;;;12.98;78.51
4814;BME280;15375;48.540;9.268;2023-05-19T08:41:20;97685.75;;;13.17;78.84
4814;BME280;15375;48.540;9.268;2023-05-19T08:43:47;97693.53;;;13.19;78.66
4814;BME280;15375;48.540;9.268;2023-05-19T08:46:15;97702.88;;;13.37;78.90
4814;BME280;15375;48.540;9.268;2023-05-19T08:48:41;97698.34;;;13.31;78.71
4814;BME280;15375;48.540;9.268;2023-05-19T08:51:30;97718.22;;;13.51;79.51
4814;BME280;15375;48.540;9.268;2023-05-19T08:54:06;97702.91;;;13.54;78.48
4814;BME280;15375;48.540;9.268;2023-05-19T08:56:33;97689.63;;;13.52;76.82
4814;BME280;15375;48.540;9.268;2023-05-19T08:58:58;97684.84;;;13.56;76.78
4814;BME280;15375;48.540;9.268;2023-05-19T09:01:25;97712.59;;;13.74;76.56
4814;BME280;15375;48.540;9.268;2023-05-19T09:03:52;97702.56;;;13.68;77.01
4814;BME280;15375;48.540;9.268;2023-05-19T09:06:18;97710.50;;;13.62;77.11
4814;BME280;15375;48.540;9.268;2023-05-19T09:08:44;97701.19;;;13.43;77.47
4814;BME280;15375;48.540;9.268;2023-05-19T09:11:11;97705.63;;;13.37;77.75
4814;BME280;15375;48.540;9.268;2023-05-19T09:13:36;97707.47;;;13.24;78.52
4814;BME280;15375;48.540;9.268;2023-05-19T09:16:02;97704.25;;;13.29;78.85
4814;BME280;15375;48.540;9.268;2023-05-19T09:18:28;97704.78;;;13.40;77.59
4814;BME280;15375;48.540;9.268;2023-05-19T09:21:01;97706.34;;;13.41;76.27
4814;BME280;15375;48.540;9.268;2023-05-19T09:23:28;97684.13;;;13.20;76.48
4814;BME280;15375;48.540;9.268;2023-05-19T09:25:54;97703.63;;;13.22;78.32
4814;BME280;15375;48.540;9.268;2023-05-19T09:28:31;97707.84;;;13.26;77.72
4814;BME280;15375;48.540;9.268;2023-05-19T09:31:04;97702.88;;;13.21;78.13
4814;BME280;15375;48.540;9.268;2023-05-19T09:33:35;97697.47;;;13.18;77.80
4814;BME280;15375;48.540;9.268;2023-05-19T09:36:01;97668.91;;;12.99;78.32
4814;BME280;15375;48.540;9.268;2023-05-19T09:38:27;97681.69;;;13.06;79.25
4814;BME280;15375;48.540;9.268;2023-05-19T09:40:59;97676.69;;;13.20;78.17
4814;BME280;15375;48.540;9.268;2023-05-19T09:43:32;97694.34;;;13.52;78.66
4814;BME280;15375;48.540;9.268;2023-05-19T09:46:08;97689.88;;;13.41;76.95
4814;BME280;15375;48.540;9.268;2023-05-19T09:48:34;97660.91;;;13.24;76.33
4814;BME280;15375;48.540;9.268;2023-05-19T09:51:01;97697.41;;;13.37;77.51
4814;BME280;15375;48.540;9.268;2023-05-19T09:53:28;97649.66;;;13.03;77.44
4814;BME280;15375;48.540;9.268;2023-05-19T09:55:55;97669.41;;;13.14;77.18
4814;BME280;15375;48.540;9.268;2023-05-19T09:58:25;97675.28;;;13.12;77.29
4814;BME280;15375;48.540;9.268;2023-05-19T10:00:50;97663.31;;;13.06;77.21
4814;BME280;15375;48.540;9.268;2023-05-19T10:03:16;97668.03;;;13.22;76.78
4814;BME280;15375;48.540;9.268;2023-05-19T10:05:43;97680.81;;;13.28;76.54
4814;BME280;15375;48.540;9.268;2023-05-19T10:08:09;97693.38;;;13.42;76.81
4814;BME280;15375;48.540;9.268;2023-05-19T10:10:36;97696.72;;;13.50;76.85
4814;BME280;15375;48.540;9.268;2023-05-19T10:13:03;97684.31;;;13.29;76.12
4814;BME280;15375;48.540;9.268;2023-05-19T10:15:28;97704.84;;;13.37;77.67
4814;BME280;15375;48.540;9.268;2023-05-19T10:17:55;97675.72;;;13.11;78.10
4814;BME280;15375;48.540;9.268;2023-05-19T10:20:22;97690.13;;;13.31;76.92
4814;BME280;15375;48.540;9.268;2023-05-19T10:22:47;97701.34;;;13.36;75.86
4814;BME280;15375;48.540;9.268;2023-05-19T10:25:13;97682.50;;;13.22;76.16
4814;BME280;15375;48.540;9.268;2023-05-19T10:27:47;97598.50;;;12.64;77.34
4814;BME280;15375;48.540;9.268;2023-05-19T10:30:19;97689.88;;;13.25;77.52
4814;BME280;15375;48.540;9.268;2023-05-19T10:32:47;97661.78;;;13.21;77.32
4814;BME280;15375;48.540;9.268;2023-05-19T10:43:53;97692.03;;;13.66;76.00
4814;BME280;15375;48.540;9.268;2023-05-19T10:46:26;97677.72;;;13.59;75.31
4814;BME280;15375;48.540;9.268;2023-05-19T10:48:53;97656.31;;;13.54;76.50
4814;BME280;15375;48.540;9.268;2023-05-19T10:51:18;97674.88;;;13.78;74.65
4814;BME280;15375;48.540;9.268;2023-05-19T10:53:44;97664.97;;;13.68;73.47
4814;BME280;15375;48.540;9.268;2023-05-19T10:56:31;97683.97;;;13.91;74.51
4814;BME280;15375;48.540;9.268;2023-05-19T10:59:29;97672.91;;;13.63;74.30
4814;BME280;15375;48.540;9.268;2023-05-19T11:01:54;97696.41;;;13.64;73.98
4814;BME280;15375;48.540;9.268;2023-05-19T11:04:38;97685.19;;;13.58;75.40
4814;BME280;15375;48.540;9.268;2023-05-19T11:07:03;97694.69;;;13.54;73.87
4814;BME280;15375;48.540;9.268;2023-05-19T11:09:28;97682.00;;;13.60;74.70
4814;BME280;15375;48.540;9.268;2023-05-19T11:12:01;97685.34;;;13.67;75.88
4814;BME280;15375;48.540;9.268;2023-05-19T11:14:31;97673.09;;;13.72;76.05
4814;BME280;15375;48.540;9.268;2023-05-19T11:16:57;97679.44;;;13.69;75.37
4814;BME280;15375;48.540;9.268;2023-05-19T11:19:31;97679.69;;;13.74;75.59
4814;BME280;15375;48.540;9.268;2023-05-19T11:22:07;97668.72;;;13.74;73.32
4814;BME280;15375;48.540;9.268;2023-05-19T11:24:43;97666.59;;;13.82;73.30
4814;BME280;15375;48.540;9.268;2023-05-19T11:27:30;97679.84;;;13.83;74.37
4814;BME280;15375;48.540;9.268;2023-05-19T11:30:10;97682.75;;;13.92;73.36
4814;BME280;15375;48.540;9.268;2023-05-19T11:32:38;97671.38;;;13.94;73.33
4814;BME280;15375;48.540;9.268;2023-05-19T11:35:07;97689.69;;;13.97;72.28
4814;BME280;15375;48.540;9.268;2023-05-19T11:37:34;97659.72;;;13.74;72.78
4814;BME280;15375;48.540;9.268;2023-05-19T11:40:04;97667.75;;;13.97;73.37
4814;BME280;15375;48.540;9.268;2023-05-19T11:42:31;97658.94;;;13.89;72.31
4814;BME280;15375;48.540;9.268;2023-05-19T11:44:56;97678.72;;;13.97;73.45
4814;BME280;15375;48.540;9.268;2023-05-19T11:47:22;97686.13;;;13.84;72.53
4814;BME280;15375;48.540;9.268;2023-05-19T11:49:47;97634.38;;;13.70;73.22
4814;BME280;15375;48.540;9.268;2023-05-19T11:52:13;97666.41;;;13.73;73.23
4814;BME280;15375;48.540;9.268;2023-05-19T11:54:39;97661.50;;;13.80;72.70
4814;BME280;15375;48.540;9.268;2023-05-19T11:57:10;97679.66;;;13.90;73.22
4814;BME280;15375;48.540;9.268;2023-05-19T11:59:36;97654.41;;;13.83;74.19
4814;BME280;15375;48.540;9.268;2023-05-19T12:02:19;97677.44;;;14.01;73.47
4814;BME280;15375;48.540;9.268;2023-05-19T12:04:48;97678.81;;;13.93;73.37
4814;BME280;15375;48.540;9.268;2023-05-19T12:07:23;97668.94;;;14.12;73.55
4814;BME280;15375;48.540;9.268;2023-05-19T12:09:49;97660.63;;;14.28;73.31
4814;BME280;15375;48.540;9.268;2023-05-19T12:12:17;97649.72;;;14.12;69.81
4814;BME280;15375;48.540;9.268;2023-05-19T12:14:43;97658.69;;;14.13;70.90
4814;BME280;15375;48.540;9.268;2023-05-19T12:17:14;97672.34;;;14.16;69.85
4814;BME280;15375;48.540;9.268;2023-05-19T12:19:42;97649.72;;;14.12;69.71
4814;BME280;15375;48.540;9.268;2023-05-19T12:22:09;97674.19;;;14.35;70.45
4814;BME280;15375;48.540;9.268;2023-05-19T12:24:35;97658.44;;;14.23;71.38
4814;BME280;15375;48.540;9.268;2023-05-19T12:27:22;97681.72;;;14.47;71.12
4814;BME280;15375;48.540;9.268;2023-05-19T12:29:53;97668.19;;;14.24;69.88
4814;BME280;15375;48.540;9.268;2023-05-19T12:32:25;97668.41;;;14.17;71.26
4814;BME280;15375;48.540;9.268;2023-05-19T12:34:52;97682.78;;;14.21;70.51
4814;BME280;15375;48.540;9.268;2023-05-19T12:37:19;97666.13;;;13.99;70.03
4814;BME280;15375;48.540;9.268;2023-05-19T12:39:45;97657.84;;;13.87;69.60
4814;BME280;15375;48.540;9.268;2023-05-19T12:42:12;97665.97;;;13.90;70.22
4814;BME280;15375;48.540;9.268;2023-05-19T12:44:43;97674.19;;;13.90;70.06
4814;BME280;15375;48.540;9.268;2023-05-19T12:47:15;97672.81;;;13.98;70.18
4814;BME280;15375;48.540;9.268;2023-05-19T12:52:33;97672.34;;;14.00;69.34
4814;BME280;15375;48.540;9.268;2023-05-19T12:55:03;97678.44;;;14.07;69.07
4814;BME280;15375;48.540;9.268;2023-05-19T12:57:32;97613.22;;;13.70;69.77
4814;BME280;15375;48.540;9.268;2023-05-19T13:02:33;97675.56;;;14.27;68.76
4814;BME280;15375;48.540;9.268;2023-05-19T13:04:59;97642.59;;;14.15;69.42
4814;BME280;15375;48.540;9.268;2023-05-19T13:07:24;97646.78;;;14.19;68.86
4814;BME280;15375;48.540;9.268;2023-05-19T13:09:55;97661.09;;;14.27;69.14
4814;BME280;15375;48.540;9.268;2023-05-19T13:12:20;97665.63;;;14.33;70.74
4814;BME280;15375;48.540;9.268;2023-05-19T13:14:46;97674.13;;;14.51;70.38
4814;BME280;15375;48.540;9.268;2023-05-19T13:17:14;97637.59;;;14.26;69.10
4814;BME280;15375;48.540;9.268;2023-05-19T13:19:45;97668.53;;;14.42;68.79
4814;BME280;15375;48.540;9.268;2023-05-19T13:22:10;97683.16;;;14.52;70.57
4814;BME280;15375;48.540;9.268;2023-05-19T13:24:38;97667.88;;;14.51;69.72
4814;BME280;15375;48.540;9.268;2023-05-19T13:27:10;97668.31;;;14.49;70.28
4814;BME280;15375;48.540;9.268;2023-05-19T13:29:38;97662.16;;;14.45;69.45
4814;BME280;15375;48.540;9.268;2023-05-19T13:32:14;97660.97;;;14.30;69.39
4814;BME280;15375;48.540;9.268;2023-05-19T13:34:39;97669.47;;;14.36;69.32
4814;BME280;15375;48.540;9.268;2023-05-19T13:37:07;97678.03;;;14.66;68.95
4814;BME280;15375;48.540;9.268;2023-05-19T13:39:34;97643.44;;;14.69;68.49
4814;BME280;15375;48.540;9.268;2023-05-19T13:41:59;97632.22;;;14.63;67.11
4814;BME280;15375;48.540;9.268;2023-05-19T13:44:24;97641.84;;;14.55;68.07